Time;durP1;ratioP1;P1;durP2;ratioP2;P2;SDS_P1;SDS_P2;PMS_P1;PMS_P2;Temp;Humidity;BMP_temperature;BMP_pressure;BME280_temperature;BME280_humidity;BME280_pressure;Samples;Min_cycle;Max_cycle;Signal;HPM_P1;HPM_P2
2021/09/06 00:01:56;;;;;;;9.20;3.83;;;;;;;7.44;73.32;100760.21;1754361;80;20914;-60
2021/09/06 00:04:28;;;;;;;6.87;3.60;;;;;;;7.40;73.31;100766.36;1748715;80;21477;-59
2021/09/06 00:06:54;;;;;;;7.95;3.37;;;;;;;7.36;73.30;100761.64;1748391;80;20965;-60
2021/09/06 00:09:21;;;;;;;9.43;3.37;;;;;;;7.34;73.38;100767.33;1748304;80;20963;-60
2021/09/06 00:11:48;;;;;;;5.75;3.87;;;;;;;7.31;73.46;100764.78;1751174;80;20944;-61
2021/09/06 00:14:15;;;;;;;9.55;3.42;;;;;;;7.28;73.53;100758.34;1749949;80;20906;-61
2021/09/06 00:16:41;;;;;;;6.65;2.98;;;;;;;7.24;73.53;100755.37;1744192;80;21314;-61
2021/09/06 00:19:08;;;;;;;4.78;2.90;;;;;;;7.17;73.53;100755.08;1743810;80;20990;-61
2021/09/06 00:21:34;;;;;;;4.83;2.65;;;;;;;7.12;73.58;100752.98;1741263;80;20913;-60
2021/09/06 00:24:01;;;;;;;6.70;3.00;;;;;;;7.07;73.65;100754.80;1672695;83;20997;-60
2021/09/06 00:26:28;;;;;;;4.25;2.75;;;;;;;7.03;73.68;100754.41;1690914;83;20980;-62
2021/09/06 00:28:55;;;;;;;5.97;2.70;;;;;;;6.99;73.75;100751.47;1699073;83;21096;-59
2021/09/06 00:31:22;;;;;;;5.17;2.77;;;;;;;6.93;73.80;100751.97;1698492;83;20979;-59
2021/09/06 00:33:48;;;;;;;4.40;2.52;;;;;;;6.88;73.87;100755.08;1716769;81;20982;-59
2021/09/06 00:36:15;;;;;;;3.72;2.12;;;;;;;6.83;73.86;100754.28;1719930;81;21476;-60
2021/09/06 00:38:42;;;;;;;4.00;2.60;;;;;;;6.77;73.98;100759.58;1717525;81;20965;-60
2021/09/06 00:41:09;;;;;;;3.67;2.45;;;;;;;6.77;74.02;100763.91;1724359;81;21045;-60
2021/09/06 00:43:36;;;;;;;3.80;2.10;;;;;;;6.76;74.09;100763.06;1756556;79;20956;-60
2021/09/06 00:46:03;;;;;;;5.37;2.08;;;;;;;6.75;74.09;100761.36;1755343;80;28113;-59
2021/09/06 00:48:31;;;;;;;4.58;2.10;;;;;;;6.74;74.11;100766.11;1753942;80;21013;-60
2021/09/06 00:50:57;;;;;;;5.03;2.30;;;;;;;6.70;74.13;100768.35;1745283;80;21001;-60
2021/09/06 00:53:24;;;;;;;4.60;2.52;;;;;;;6.66;74.15;100766.66;1742489;80;21048;-59
2021/09/06 00:55:51;;;;;;;4.33;2.57;;;;;;;6.68;74.28;100767.51;1747600;80;21075;-59
2021/09/06 00:58:18;;;;;;;4.47;2.00;;;;;;;6.66;74.29;100764.92;1749217;80;20943;-59
2021/09/06 01:00:45;;;;;;;4.15;2.10;;;;;;;6.66;74.25;100766.66;1751800;80;20900;-59
2021/09/06 01:03:11;;;;;;;9.10;2.47;;;;;;;6.62;74.22;100759.82;1749314;79;20999;-60
2021/09/06 01:05:38;;;;;;;8.37;2.67;;;;;;;6.58;74.32;100755.53;1749745;80;21823;-60
2021/09/06 01:08:05;;;;;;;3.85;2.10;;;;;;;6.53;74.39;100762.11;1761159;80;20941;-60
2021/09/06 01:10:32;;;;;;;3.33;2.30;;;;;;;6.46;74.31;100762.61;1750802;80;20923;-60
2021/09/06 01:12:59;;;;;;;8.43;2.10;;;;;;;6.40;74.33;100761.84;1750619;80;20918;-59
2021/09/06 01:15:26;;;;;;;5.25;2.00;;;;;;;6.31;74.39;100764.12;1755440;80;20943;-60
2021/09/06 01:17:53;;;;;;;5.58;2.02;;;;;;;6.24;74.45;100776.74;1744139;80;21852;-60
2021/09/06 01:20:19;;;;;;;3.70;2.17;;;;;;;6.16;74.50;100768.20;1753307;80;20916;-59
2021/09/06 01:22:46;;;;;;;6.37;2.73;;;;;;;6.15;74.70;100767.79;1749032;80;20948;-60
2021/09/06 01:25:18;;;;;;;3.77;2.00;;;;;;;6.07;74.78;100751.47;1754676;80;20932;-59
2021/09/06 01:27:45;;;;;;;6.30;2.08;;;;;;;6.14;74.73;100763.49;1762486;80;20912;-60
2021/09/06 01:30:13;;;;;;;4.65;2.27;;;;;;;6.11;74.72;100767.42;1748022;80;21173;-59
2021/09/06 01:32:40;;;;;;;7.47;2.42;;;;;;;5.99;74.66;100761.51;1752301;80;21474;-59
2021/09/06 01:35:08;;;;;;;7.22;2.45;;;;;;;5.98;74.68;100770.14;1741697;80;21473;-59
2021/09/06 01:37:35;;;;;;;5.10;2.98;;;;;;;5.90;74.72;100765.45;1769080;80;20906;-59
2021/09/06 01:40:01;;;;;;;5.00;2.02;;;;;;;5.84;74.83;100774.59;1752098;80;20892;-60
2021/09/06 01:42:28;;;;;;;6.47;2.17;;;;;;;5.81;74.88;100766.86;1756716;80;21034;-60
2021/09/06 01:44:55;;;;;;;5.60;2.37;;;;;;;5.76;74.90;100766.05;1751203;80;21515;-59
2021/09/06 01:47:21;;;;;;;4.73;2.40;;;;;;;5.72;75.00;100772.15;1747908;80;21065;-60
2021/09/06 01:49:48;;;;;;;3.50;2.30;;;;;;;5.66;74.98;100772.19;1757757;80;20920;-60
2021/09/06 01:52:14;;;;;;;3.75;1.90;;;;;;;5.60;75.07;100768.81;1744659;80;20956;-59
2021/09/06 01:54:41;;;;;;;3.92;1.87;;;;;;;5.53;75.05;100765.84;1742898;80;21062;-59
2021/09/06 01:57:08;;;;;;;6.15;2.20;;;;;;;5.47;75.09;100765.91;1753682;80;20857;-59
2021/09/06 01:59:34;;;;;;;4.35;2.12;;;;;;;5.43;75.13;100765.50;1750284;80;21424;-59
2021/09/06 02:02:01;;;;;;;5.55;2.10;;;;;;;5.37;75.15;100770.75;1740138;80;20946;-60
2021/09/06 02:04:28;;;;;;;5.40;2.42;;;;;;;5.30;75.20;100766.52;1753922;80;20951;-60
2021/09/06 02:06:54;;;;;;;3.80;2.30;;;;;;;5.25;75.25;100760.51;1739702;80;21436;-60
2021/09/06 02:09:21;;;;;;;5.58;2.37;;;;;;;5.22;75.36;100764.42;1727854;80;20900;-60
2021/09/06 02:11:48;;;;;;;3.85;2.05;;;;;;;5.19;75.45;100764.45;1744436;80;20926;-59
2021/09/06 02:14:14;;;;;;;3.37;2.20;;;;;;;5.16;75.52;100767.48;1758785;80;21803;-59
2021/09/06 02:16:41;;;;;;;4.17;2.65;;;;;;;5.12;75.62;100763.19;1755747;80;21508;-59
2021/09/06 02:19:07;;;;;;;6.60;2.22;;;;;;;5.12;75.65;100768.36;1751063;80;21050;-59
2021/09/06 02:21:34;;;;;;;4.67;2.60;;;;;;;5.11;75.68;100767.95;1753759;80;20948;-59
2021/09/06 02:24:02;;;;;;;5.47;2.77;;;;;;;5.09;75.74;100768.39;1747882;80;20916;-60
2021/09/06 02:26:29;;;;;;;4.30;2.35;;;;;;;5.05;75.78;100769.30;1749926;80;20917;-59
2021/09/06 02:28:56;;;;;;;3.65;2.27;;;;;;;5.04;75.85;100765.00;1764517;80;20981;-59
2021/09/06 02:31:22;;;;;;;7.50;2.17;;;;;;;5.02;75.89;100764.15;1752953;80;21901;-59
2021/09/06 02:33:49;;;;;;;4.85;2.60;;;;;;;4.99;75.95;100759.00;1755923;80;20926;-59
2021/09/06 02:36:16;;;;;;;4.57;2.77;;;;;;;4.95;75.96;100758.58;1760381;80;20895;-60
2021/09/06 02:38:42;;;;;;;4.08;2.15;;;;;;;4.92;76.03;100763.78;1751807;80;20983;-59
2021/09/06 02:41:09;;;;;;;3.83;2.30;;;;;;;4.89;76.05;100762.52;1755854;80;21493;-60
2021/09/06 02:43:36;;;;;;;6.42;2.20;;;;;;;4.84;76.05;100764.27;1767704;80;21035;-59
2021/09/06 02:46:02;;;;;;;5.20;2.17;;;;;;;4.78;76.08;100765.62;1766384;80;20950;-60
2021/09/06 02:48:29;;;;;;;3.37;2.08;;;;;;;4.75;76.24;100769.08;1754898;80;20966;-59
2021/09/06 02:50:55;;;;;;;4.65;2.50;;;;;;;4.75;76.36;100765.64;1755825;80;20904;-59
2021/09/06 02:53:22;;;;;;;4.08;2.25;;;;;;;4.73;76.41;100773.84;1764061;80;20960;-59
2021/09/06 02:55:48;;;;;;;4.35;2.35;;;;;;;4.75;76.45;100769.52;1760720;80;21469;-59
2021/09/06 02:58:15;;;;;;;5.17;2.33;;;;;;;4.79;76.58;100767.32;1757715;80;20917;-59
2021/09/06 03:00:42;;;;;;;4.87;1.80;;;;;;;4.84;76.63;100772.03;1758733;80;20882;-59
2021/09/06 03:03:09;;;;;;;4.63;2.20;;;;;;;4.88;76.59;100769.42;1763335;80;20958;-59
2021/09/06 03:05:36;;;;;;;4.12;1.80;;;;;;;4.84;76.40;100770.30;1757459;80;21506;-60
2021/09/06 03:08:03;;;;;;;7.95;2.50;;;;;;;4.79;76.32;100768.62;1765890;80;21036;-59
2021/09/06 03:10:31;;;;;;;5.72;2.33;;;;;;;4.76;76.45;100768.64;1764441;80;20923;-60
2021/09/06 03:12:58;;;;;;;3.55;1.65;;;;;;;4.71;76.38;100764.37;1763563;80;20950;-59
2021/09/06 03:15:25;;;;;;;2.75;1.90;;;;;;;4.63;76.42;100760.12;1765147;80;21453;-59
2021/09/06 03:17:51;;;;;;;5.17;2.10;;;;;;;4.56;76.51;100755.39;1774454;80;20942;-59
2021/09/06 03:20:18;;;;;;;4.28;1.80;;;;;;;4.51;76.59;100753.30;1757194;80;21049;-59
2021/09/06 03:22:45;;;;;;;4.53;2.20;;;;;;;4.46;76.69;100757.62;1758351;80;21390;-59
2021/09/06 03:25:11;;;;;;;4.40;2.05;;;;;;;4.42;76.76;100750.30;1756821;80;20912;-59
2021/09/06 03:27:38;;;;;;;4.72;1.80;;;;;;;4.41;76.88;100749.03;1761424;80;20950;-59
2021/09/06 03:30:07;;;;;;;3.10;1.70;;;;;;;4.39;76.85;100748.17;1753114;80;21597;-60
2021/09/06 03:32:33;;;;;;;3.42;2.00;;;;;;;4.34;76.90;100747.34;1759579;80;21198;-59
2021/09/06 03:35:00;;;;;;;4.67;1.95;;;;;;;4.29;76.89;100742.65;1761392;80;20895;-59
2021/09/06 03:37:27;;;;;;;4.78;1.90;;;;;;;4.25;76.98;100751.69;1756173;80;20892;-59
2021/09/06 03:39:53;;;;;;;4.08;1.92;;;;;;;4.23;77.06;100746.98;1752586;80;20951;-59
2021/09/06 03:42:20;;;;;;;7.12;2.70;;;;;;;4.22;77.05;100743.95;1756601;80;21636;-60
2021/09/06 03:44:46;;;;;;;4.17;2.35;;;;;;;4.18;77.07;100742.26;1767373;80;21032;-60
2021/09/06 03:47:13;;;;;;;4.47;1.93;;;;;;;4.17;77.16;100748.30;1762225;80;20957;-59
2021/09/06 03:49:40;;;;;;;5.72;2.45;;;;;;;4.19;77.25;100745.70;1747659;80;20923;-59
2021/09/06 03:52:06;;;;;;;7.17;1.90;;;;;;;4.19;77.29;100740.53;1768151;80;20903;-59
2021/09/06 03:54:33;;;;;;;5.60;2.85;;;;;;;4.19;77.34;100751.72;1773026;80;20971;-59
2021/09/06 03:57:00;;;;;;;15.10;2.90;;;;;;;4.19;77.32;100746.55;1754624;80;21912;-60
2021/09/06 03:59:26;;;;;;;6.25;2.45;;;;;;;4.17;77.36;100740.55;1751769;80;21505;-59
2021/09/06 04:01:53;;;;;;;13.72;2.50;;;;;;;4.17;77.41;100740.55;1749152;80;20877;-59
2021/09/06 04:04:19;;;;;;;7.10;2.42;;;;;;;4.16;77.39;100747.86;1747389;80;20899;-60
2021/09/06 04:06:48;;;;;;;9.20;2.13;;;;;;;4.16;77.46;100743.98;1743376;80;20931;-60
2021/09/06 04:09:14;;;;;;;30.08;4.25;;;;;;;4.18;77.48;100743.55;1749784;80;21434;-60
2021/09/06 04:11:41;;;;;;;19.87;2.90;;;;;;;4.18;77.49;100742.26;1744463;80;20884;-60
2021/09/06 04:14:12;;;;;;;20.32;2.98;;;;;;;4.25;77.77;100747.80;1742451;80;20934;-59
2021/09/06 04:16:36;;;;;;;14.73;2.85;;;;;;;4.35;77.74;100741.32;1747754;80;20939;-60
2021/09/06 04:19:03;;;;;;;9.78;2.45;;;;;;;4.59;77.92;100746.31;1752135;80;20927;-59
2021/09/06 04:21:29;;;;;;;33.78;4.95;;;;;;;5.01;78.09;100742.14;1755230;79;21023;-59
2021/09/06 04:23:57;;;;;;;37.33;4.62;;;;;;;5.49;78.02;100742.16;1763565;80;20890;-60
2021/09/06 04:26:23;;;;;;;115.05;6.72;;;;;;;6.04;77.66;100741.55;1759083;80;24331;-60
2021/09/06 04:28:51;;;;;;;115.15;7.20;;;;;;;6.34;76.93;100742.03;1743844;80;20936;-60
2021/09/06 04:31:18;;;;;;;57.48;4.95;;;;;;;6.45;76.71;100740.16;1747904;80;21387;-59
2021/09/06 04:33:45;;;;;;;45.80;5.80;;;;;;;6.92;76.94;100734.69;1755516;80;21110;-61
2021/09/06 04:36:11;;;;;;;34.70;4.40;;;;;;;7.60;76.90;100737.41;1764781;80;20902;-60
2021/09/06 04:38:38;;;;;;;52.10;4.87;;;;;;;8.33;76.70;100736.81;1759551;80;20941;-60
2021/09/06 04:41:04;;;;;;;54.07;6.73;;;;;;;8.97;76.25;100732.75;1757656;80;20888;-61
2021/09/06 04:43:31;;;;;;;95.42;9.50;;;;;;;9.51;75.85;100726.16;1753645;80;20981;-60
2021/09/06 04:45:58;;;;;;;92.40;8.43;;;;;;;10.08;75.67;100727.59;1746533;80;21099;-60
2021/09/06 04:48:24;;;;;;;77.80;7.45;;;;;;;10.66;75.60;100733.28;1744243;80;21435;-61
2021/09/06 04:50:51;;;;;;;45.10;6.37;;;;;;;11.30;75.63;100733.78;1738656;80;20920;-61
2021/09/06 04:53:18;;;;;;;30.90;4.73;;;;;;;11.97;75.24;100732.33;1745202;80;20940;-60
2021/09/06 04:55:44;;;;;;;25.80;4.17;;;;;;;12.46;74.38;100730.45;1760855;80;20916;-61
2021/09/06 04:58:11;;;;;;;28.93;4.03;;;;;;;12.83;73.93;100731.64;1745687;80;21040;-61
2021/09/06 05:00:38;;;;;;;22.87;3.63;;;;;;;13.28;74.14;100735.94;1747287;80;21005;-61
2021/09/06 05:03:04;;;;;;;80.62;7.17;;;;;;;13.94;74.40;100731.26;1755372;80;20990;-61
2021/09/06 05:05:31;;;;;;;42.10;6.03;;;;;;;14.36;73.65;100730.20;1763789;80;20915;-60
2021/09/06 05:07:58;;;;;;;52.53;5.17;;;;;;;14.66;73.21;100730.56;1772539;80;20939;-60
2021/09/06 05:10:24;;;;;;;47.90;6.85;;;;;;;14.84;72.91;100730.12;1738527;80;24221;-61
2021/09/06 05:12:53;;;;;;;138.15;11.78;;;;;;;15.12;72.81;100730.08;1755872;80;20868;-61
2021/09/06 05:15:20;;;;;;;69.62;9.25;;;;;;;15.42;72.81;100731.16;1756110;80;20906;-61
2021/09/06 05:17:46;;;;;;;;;;;;;;;15.75;72.58;100729.53;1758745;80;20883;-61
2021/09/06 05:20:13;;;;;;;58.33;5.50;;;;;;;16.01;71.95;100735.56;1750764;80;20602;-63
2021/09/06 05:22:55;;;;;;;117.93;11.03;;;;;;;16.26;71.91;100725.02;1752989;80;21220;-61
2021/09/06 05:25:23;;;;;;;105.87;9.70;;;;;;;16.46;71.98;100731.81;1745193;80;20996;-61
2021/09/06 05:27:57;;;;;;;167.72;16.73;;;;;;;16.77;71.49;100726.53;1759276;80;20895;-62
2021/09/06 05:30:27;;;;;;;146.30;19.27;;;;;;;17.01;71.41;100731.36;1729519;80;21299;-61
2021/09/06 05:32:54;;;;;;;177.20;28.67;;;;;;;17.14;71.13;100734.11;1763928;80;20947;-62
2021/09/06 05:35:21;;;;;;;284.10;42.75;;;;;;;17.23;71.23;100738.87;1761230;80;21049;-62
2021/09/06 05:37:48;;;;;;;213.20;35.52;;;;;;;17.33;70.94;100737.84;1728219;80;20916;-61
2021/09/06 05:40:15;;;;;;;176.80;27.52;;;;;;;17.32;70.54;100734.84;1756656;80;21025;-62
2021/09/06 05:42:41;;;;;;;140.97;22.37;;;;;;;17.45;70.35;100737.13;1771085;80;21041;-61
2021/09/06 05:45:09;;;;;;;96.87;17.57;;;;;;;17.55;70.37;100734.30;1757733;80;27078;-61
2021/09/06 05:47:36;;;;;;;106.90;18.87;;;;;;;17.85;69.90;100730.78;1756828;80;21029;-61
2021/09/06 05:50:04;;;;;;;135.82;20.82;;;;;;;17.99;69.44;100733.41;1758984;80;20876;-61
2021/09/06 05:52:31;;;;;;;82.42;13.18;;;;;;;18.21;69.38;100733.41;1772336;80;20923;-62
2021/09/06 05:55:00;;;;;;;27.95;6.10;;;;;;;18.41;69.10;100731.66;1754033;80;20900;-61
2021/09/06 05:57:27;;;;;;;25.23;4.45;;;;;;;18.68;69.29;100730.81;1763960;80;20966;-61
2021/09/06 05:59:54;;;;;;;14.93;4.15;;;;;;;18.93;68.68;100724.79;1754832;80;21155;-61
2021/09/06 06:02:21;;;;;;;;;;;;;;;19.20;68.33;100730.05;1751205;80;20994;-61
2021/09/06 06:04:53;;;;;;;7.50;3.50;;;;;;;19.30;67.45;100731.14;1748703;80;20080;-62
2021/09/06 06:07:20;;;;;;;13.53;3.47;;;;;;;19.43;67.67;100730.65;1748981;80;20992;-62
2021/09/06 06:09:48;;;;;;;5.62;3.33;;;;;;;19.58;67.39;100729.26;1752855;80;21032;-59
2021/09/06 06:12:30;;;;;;;8.20;3.45;;;;;;;19.74;67.04;100728.57;1719691;80;21916;-59
2021/09/06 06:14:59;;;;;;;25.85;4.72;;;;;;;19.87;66.77;100726.77;1747123;80;20945;-59
2021/09/06 06:17:26;;;;;;;45.25;6.45;;;;;;;19.94;66.24;100722.35;1753565;80;20895;-60
2021/09/06 06:19:53;;;;;;;39.40;6.08;;;;;;;20.03;66.55;100725.22;1752722;80;20996;-61
2021/09/06 06:22:24;;;;;;;13.85;4.83;;;;;;;20.15;65.88;100720.84;1754963;80;21023;-60
2021/09/06 06:24:50;;;;;;;65.10;7.72;;;;;;;20.12;65.45;100718.41;1753539;79;21051;-61
2021/09/06 06:27:16;;;;;;;17.62;5.30;;;;;;;20.17;65.17;100720.26;1722756;80;21468;-60
2021/09/06 06:29:43;;;;;;;;;;;;;;;20.13;64.73;100722.74;1752792;80;20966;-61
2021/09/06 06:32:09;;;;;;;;;;;;;;;20.07;64.08;100723.19;1749671;80;20113;-61
2021/09/06 06:34:37;;;;;;;9.15;3.17;;;;;;;19.99;63.91;100725.53;1752768;79;20561;-60
2021/09/06 06:37:04;;;;;;;8.28;3.20;;;;;;;19.93;63.85;100725.97;1748872;80;20950;-60
2021/09/06 06:39:31;;;;;;;7.62;2.42;;;;;;;20.03;63.96;100726.55;1756567;80;20959;-61
2021/09/06 06:41:58;;;;;;;9.20;2.47;;;;;;;20.08;63.95;100723.55;1757974;80;21204;-60
2021/09/06 06:44:26;;;;;;;12.13;2.75;;;;;;;20.19;63.35;100719.65;1764487;80;21641;-60
2021/09/06 06:46:53;;;;;;;52.90;6.62;;;;;;;20.25;63.12;100720.56;1752954;80;20955;-60
2021/09/06 06:49:19;;;;;;;;;;;;;;;20.25;63.03;100727.19;1766272;80;21033;-60
2021/09/06 06:51:46;;;;;;;36.55;4.12;;;;;;;20.27;62.18;100717.30;1763239;80;20106;-60
2021/09/06 06:54:12;;;;;;;;;;;;;;;20.35;62.41;100717.59;1769197;80;20949;-61
2021/09/06 06:56:38;;;;;;;;;;;;;;;20.41;61.82;100720.77;1763472;80;20127;-61
2021/09/06 06:59:05;;;;;;;;;;;;;;;20.38;61.57;100724.48;1760287;80;20095;-61
2021/09/06 07:01:37;;;;;;;11.25;2.50;;;;;;;20.43;61.27;100725.48;1754848;80;21815;-61
2021/09/06 07:04:04;;;;;;;14.30;2.65;;;;;;;20.51;62.07;100721.80;1749140;80;21477;-61
2021/09/06 07:06:31;;;;;;;6.25;1.87;;;;;;;20.52;61.48;100728.30;1763106;80;20939;-61
2021/09/06 07:09:04;;;;;;;6.78;2.10;;;;;;;20.41;60.94;100728.72;1753809;80;20918;-60
2021/09/06 07:11:30;;;;;;;33.35;5.17;;;;;;;20.11;60.59;100735.28;1754189;79;20965;-60
2021/09/06 07:13:56;;;;;;;40.43;5.28;;;;;;;19.76;60.54;100725.34;1769067;79;21050;-60
2021/09/06 07:16:23;;;;;;;10.28;2.27;;;;;;;19.54;60.87;100733.05;1754869;80;20918;-60
2021/09/06 07:18:55;;;;;;;62.27;5.85;;;;;;;19.37;60.72;100723.12;1757516;80;20904;-60
2021/09/06 07:21:23;;;;;;;39.45;4.15;;;;;;;19.11;60.64;100726.70;1750780;80;20910;-60
2021/09/06 07:23:51;;;;;;;13.58;2.30;;;;;;;18.81;60.54;100731.74;1761735;80;26529;-60
2021/09/06 07:26:18;;;;;;;10.55;2.40;;;;;;;18.64;60.43;100733.30;1757832;80;21117;-60
2021/09/06 07:28:51;;;;;;;6.75;2.17;;;;;;;18.49;60.66;100737.30;1752931;80;20944;-61
2021/09/06 07:31:18;;;;;;;8.90;2.10;;;;;;;18.42;60.56;100742.59;1734708;80;20901;-61
2021/09/06 07:33:45;;;;;;;93.58;9.18;;;;;;;18.36;60.52;100737.70;1738653;80;20918;-61
2021/09/06 07:36:19;;;;;;;34.60;5.08;;;;;;;18.29;60.09;100735.94;1738232;80;21081;-60
2021/09/06 07:38:46;;;;;;;29.52;2.70;;;;;;;18.16;60.11;100732.36;1746674;80;21020;-60
2021/09/06 07:41:14;;;;;;;32.48;4.62;;;;;;;18.12;59.99;100738.80;1734854;80;20934;-60
2021/09/06 07:43:46;;;;;;;88.97;9.08;;;;;;;18.14;59.94;100733.40;1733402;80;20917;-60
2021/09/06 07:46:15;;;;;;;44.20;6.20;;;;;;;18.15;60.13;100740.38;1739476;80;21481;-60
2021/09/06 07:48:44;;;;;;;73.75;7.12;;;;;;;18.13;59.42;100737.00;1735321;80;20987;-61
2021/09/06 07:51:12;;;;;;;32.08;3.72;;;;;;;18.11;59.58;100741.89;1737687;80;21048;-61
2021/09/06 07:53:39;;;;;;;14.35;2.42;;;;;;;18.17;59.68;100738.48;1745603;78;20937;-61
2021/09/06 07:56:08;;;;;;;3.33;1.55;;;;;;;18.19;59.44;100744.53;1737289;80;21452;-61
2021/09/06 07:58:34;;;;;;;4.37;1.50;;;;;;;18.17;59.36;100733.20;1742301;80;20936;-61
2021/09/06 08:01:01;;;;;;;2.50;1.37;;;;;;;18.15;59.17;100732.44;1745753;80;20959;-61
2021/09/06 08:03:27;;;;;;;20.50;3.25;;;;;;;18.12;59.06;100741.44;1739998;80;21059;-61
2021/09/06 08:05:54;;;;;;;3.40;1.50;;;;;;;18.07;58.55;100739.55;1740386;79;20918;-62
2021/09/06 08:08:33;;;;;;;45.03;4.10;;;;;;;17.97;58.79;100740.58;1749117;80;20942;-61
2021/09/06 08:10:57;;;;;;;16.97;2.87;;;;;;;18.01;58.71;100740.78;1739569;80;21530;-61
2021/09/06 08:13:23;;;;;;;4.25;2.00;;;;;;;18.06;58.72;100740.03;1745255;80;20937;-61
2021/09/06 08:15:50;;;;;;;13.32;2.17;;;;;;;18.14;58.24;100743.97;1737908;81;21537;-60
2021/09/06 08:18:18;;;;;;;7.47;1.75;;;;;;;18.05;58.22;100735.67;1741801;80;20908;-61
2021/09/06 08:20:45;;;;;;;9.33;1.82;;;;;;;18.06;58.42;100740.03;1743562;80;21496;-61
2021/09/06 08:23:12;;;;;;;12.10;2.20;;;;;;;18.14;58.50;100736.05;1732605;80;20933;-61
2021/09/06 08:25:42;;;;;;;4.47;1.42;;;;;;;18.10;57.82;100742.84;1734644;80;20980;-60
2021/09/06 08:28:10;;;;;;;3.30;1.70;;;;;;;18.16;57.98;100737.64;1730809;80;20928;-61
2021/09/06 08:30:37;;;;;;;14.60;2.00;;;;;;;18.20;58.09;100736.97;1735479;80;21444;-61
2021/09/06 08:33:04;;;;;;;58.45;5.65;;;;;;;18.26;57.89;100737.90;1737192;80;20999;-61
2021/09/06 08:35:31;;;;;;;65.75;6.80;;;;;;;18.33;57.72;100731.30;1728523;80;20905;-61
2021/09/06 08:37:57;;;;;;;70.60;6.42;;;;;;;18.31;57.62;100727.89;1735537;80;20951;-60
2021/09/06 08:40:24;;;;;;;25.75;3.80;;;;;;;18.36;57.92;100723.16;1739265;80;21065;-61
2021/09/06 08:42:51;;;;;;;7.22;2.17;;;;;;;18.53;58.08;100724.25;1739952;80;20998;-61
2021/09/06 08:45:20;;;;;;;18.98;3.45;;;;;;;18.67;57.71;100721.19;1743322;80;20965;-61
2021/09/06 08:47:48;;;;;;;7.62;2.47;;;;;;;18.75;57.33;100716.28;1736504;80;20942;-61
2021/09/06 08:50:15;;;;;;;5.40;2.12;;;;;;;18.72;57.49;100718.61;1736179;80;21057;-61
2021/09/06 08:52:42;;;;;;;15.90;2.58;;;;;;;18.80;57.37;100716.83;1740252;80;21173;-61
2021/09/06 08:55:20;;;;;;;21.57;3.15;;;;;;;18.75;57.18;100721.09;1739720;80;21690;-61
2021/09/06 08:58:03;;;;;;;11.53;2.35;;;;;;;18.82;57.38;100719.36;1735426;80;20913;-65
2021/09/06 09:01:04;;;;;;;11.63;1.95;;;;;;;18.97;57.19;100721.84;1714121;80;21845;-61
2021/09/06 09:03:47;;;;;;;19.90;3.65;;;;;;;19.01;57.28;100727.30;1730688;80;20948;-63
2021/09/06 09:10:37;;;;;;;16.67;2.98;;;;;;;19.06;56.74;100724.84;1591425;87;20956;-61
2021/09/06 09:13:11;;;;;;;4.72;2.20;;;;;;;19.15;56.83;100722.41;1587551;87;21009;-61
2021/09/06 09:19:14;;;;;;;;;;;;;;;;;;;;;
2021/09/06 09:21:38;;;;;;;2.65;1.90;;;;;;;19.43;56.33;100716.56;1555913;89;21422;-61
2021/09/06 09:25:19;;;;;;;3.58;1.90;;;;;;;19.43;56.30;100717.89;1565792;88;21003;-61
2021/09/06 09:27:48;;;;;;;13.45;3.15;;;;;;;19.40;55.81;100717.63;1544229;91;21066;-61
2021/09/06 09:30:41;;;;;;;5.28;3.80;;;;;;;19.15;55.38;100718.91;1546435;91;21068;-60
2021/09/06 09:33:34;;;;;;;6.80;3.55;;;;;;;19.03;55.28;100717.95;1546618;90;21017;-61
2021/09/06 09:35:58;;;;;;;3.77;2.55;;;;;;;18.92;55.41;100716.48;1542611;91;21054;-61
2021/09/06 09:38:36;;;;;;;60.70;6.83;;;;;;;18.91;55.28;100718.29;1546413;91;21742;-61
2021/09/06 09:41:21;;;;;;;28.30;4.50;;;;;;;18.92;55.27;100713.36;1528273;91;21019;-62
2021/09/06 09:43:47;;;;;;;7.67;2.42;;;;;;;19.10;55.49;100715.72;1529957;91;21682;-61
2021/09/06 09:46:20;;;;;;;4.60;2.60;;;;;;;19.17;55.17;100710.41;1551297;90;21005;-62
2021/09/06 09:48:46;;;;;;;4.67;2.40;;;;;;;19.18;55.16;100705.47;1547778;90;21514;-61
2021/09/06 09:51:16;;;;;;;26.82;9.03;;;;;;;19.16;55.10;100708.72;1549792;91;20986;-61
2021/09/06 09:53:45;;;;;;;97.47;11.65;;;;;;;19.24;55.26;100710.38;1512087;92;21681;-61
2021/09/06 09:56:14;;;;;;;32.75;4.30;;;;;;;19.34;55.04;100703.48;1509182;93;20980;-61
2021/09/06 09:58:41;;;;;;;5.47;2.30;;;;;;;19.38;54.98;100703.66;1488839;94;21641;-62
2021/09/06 10:01:10;;;;;;;7.95;2.10;;;;;;;19.47;54.71;100702.66;1573893;86;21143;-61
2021/09/06 10:03:41;;;;;;;20.92;3.75;;;;;;;19.44;54.54;100696.61;1642817;82;20991;-61
2021/09/06 10:06:08;;;;;;;7.40;2.20;;;;;;;19.47;54.56;100700.02;1712294;81;21028;-61
2021/09/06 10:08:35;;;;;;;2.52;1.60;;;;;;;19.43;54.05;100702.84;1707406;81;20900;-61
2021/09/06 10:11:13;;;;;;;30.55;3.60;;;;;;;19.26;53.98;100695.21;1721244;81;20968;-61
2021/09/06 10:13:44;;;;;;;6.35;2.12;;;;;;;19.16;53.99;100701.63;1713831;81;21216;-62
2021/09/06 10:16:10;;;;;;;6.40;2.80;;;;;;;19.26;54.17;100701.83;1712898;81;20945;-62
2021/09/06 10:18:40;;;;;;;7.12;3.33;;;;;;;19.22;53.76;100701.68;1718190;81;21471;-62
2021/09/06 10:21:16;;;;;;;17.42;3.45;;;;;;;19.23;54.02;100707.34;1720364;81;20979;-62
2021/09/06 10:23:48;;;;;;;5.28;2.50;;;;;;;19.18;53.36;100702.82;1713813;81;21528;-61
2021/09/06 10:26:14;;;;;;;60.08;6.35;;;;;;;19.22;53.60;100706.97;1705987;82;22002;-61
2021/09/06 10:28:41;;;;;;;55.85;7.37;;;;;;;19.27;53.68;100700.90;1711521;81;21108;-62
2021/09/06 10:31:20;;;;;;;100.38;10.20;;;;;;;19.36;53.75;100696.28;1734534;79;20940;-62
2021/09/06 10:34:00;;;;;;;167.85;21.73;;;;;;;19.50;53.63;100694.50;1728488;80;20869;-61
2021/09/06 10:36:27;;;;;;;34.88;5.40;;;;;;;19.61;53.48;100699.90;1742311;78;20911;-61
2021/09/06 10:39:08;;;;;;;48.50;4.90;;;;;;;19.76;53.53;100698.00;1735479;80;21117;-63
2021/09/06 10:41:47;;;;;;;10.18;2.42;;;;;;;19.96;53.57;100696.59;1738667;80;20868;-62
2021/09/06 10:44:18;;;;;;;8.33;2.83;;;;;;;19.98;53.05;100692.04;1739350;80;20981;-62
2021/09/06 10:47:08;;;;;;;3.30;2.10;;;;;;;19.84;53.00;100689.88;1738293;80;21044;-62
2021/09/06 10:49:39;;;;;;;65.65;6.35;;;;;;;19.90;53.20;100689.92;1741968;80;20970;-63
2021/09/06 10:52:07;;;;;;;38.15;5.08;;;;;;;19.88;52.91;100684.75;1734815;80;21055;-62
2021/09/06 10:57:22;;;;;;;4.12;3.10;;;;;;;19.89;52.60;100688.24;1715012;80;20891;-62
2021/09/06 10:59:49;;;;;;;6.03;3.05;;;;;;;19.82;52.59;100687.81;1740193;80;20932;-62
2021/09/06 11:02:48;;;;;;;5.40;2.67;;;;;;;19.83;52.46;100686.03;1745213;80;20914;-62
2021/09/06 11:05:23;;;;;;;14.38;3.58;;;;;;;19.80;52.38;100687.55;1749502;80;20855;-62
2021/09/06 11:08:08;;;;;;;111.20;10.58;;;;;;;19.81;52.45;100694.08;1736957;80;20935;-62
2021/09/06 11:10:32;;;;;;;23.02;4.70;;;;;;;19.85;52.38;100688.91;1746718;80;21502;-62
2021/09/06 11:13:01;;;;;;;;;;;;;;;20.04;52.41;100686.30;1767811;80;20942;-65
2021/09/06 11:15:34;;;;;;;6.05;3.05;;;;;;;20.15;52.07;100686.38;1757228;80;20129;-62
2021/09/06 11:18:04;;;;;;;118.80;9.75;;;;;;;20.23;52.18;100686.67;1738776;80;21009;-63
2021/09/06 11:20:33;;;;;;;21.90;3.30;;;;;;;20.20;52.02;100677.61;1752053;80;20888;-63
2021/09/06 11:23:02;;;;;;;12.95;2.83;;;;;;;20.32;52.11;100684.66;1753389;80;21472;-63
2021/09/06 11:25:32;;;;;;;43.98;5.70;;;;;;;20.47;52.04;100679.19;1744717;80;20904;-63
2021/09/06 11:28:14;;;;;;;63.90;6.30;;;;;;;20.53;51.86;100671.69;1753517;80;20998;-63
2021/09/06 11:30:44;;;;;;;7.67;2.70;;;;;;;20.65;51.80;100671.25;1750992;80;21565;-63
2021/09/06 11:33:12;;;;;;;5.17;2.10;;;;;;;20.69;51.39;100671.37;1765306;80;20914;-63
2021/09/06 11:35:43;;;;;;;8.88;2.30;;;;;;;20.63;50.96;100670.50;1760838;80;20950;-63
2021/09/06 11:38:12;;;;;;;121.55;12.28;;;;;;;20.47;50.99;100669.91;1754263;80;20958;-63
2021/09/06 11:40:40;;;;;;;64.42;6.22;;;;;;;20.52;51.36;100673.08;1745982;80;20937;-63
2021/09/06 11:43:09;;;;;;;39.70;6.03;;;;;;;20.66;51.32;100670.27;1746381;80;21019;-63
2021/09/06 11:45:36;;;;;;;24.20;3.62;;;;;;;20.83;51.36;100669.01;1756040;80;20907;-63